createdAt,value
2016-02-06T00:00:32.108Z,0
2016-02-06T00:01:32.080Z,0
2016-02-06T00:02:32.068Z,0
2016-02-06T00:03:32.086Z,0
2016-02-06T00:04:31.855Z,0
2016-02-06T00:05:31.997Z,0
2016-02-06T00:06:31.999Z,0
2016-02-06T00:07:31.944Z,0
2016-02-06T00:08:31.946Z,0
2016-02-06T00:09:31.902Z,0
2016-02-06T00:10:31.873Z,0
2016-02-06T00:11:31.891Z,0
2016-02-06T00:12:31.832Z,0
2016-02-06T00:13:31.819Z,0
2016-02-06T00:14:31.791Z,0
2016-02-06T00:15:31.778Z,0
2016-02-06T00:16:31.766Z,0
2016-02-06T00:17:31.753Z,0
2016-02-06T00:18:31.693Z,0
2016-02-06T00:19:31.680Z,0
2016-02-06T00:20:31.668Z,0
2016-02-06T00:21:31.656Z,0
2016-02-06T00:22:31.626Z,0
2016-02-06T00:23:31.583Z,0
2016-02-06T00:24:31.586Z,0
2016-02-06T00:25:31.542Z,0
2016-02-06T00:26:31.512Z,0
2016-02-06T00:27:31.501Z,0
2016-02-06T00:28:31.472Z,0
2016-02-06T00:29:31.318Z,0
2016-02-06T00:30:31.445Z,0
2016-02-06T00:31:31.402Z,0
2016-02-06T00:32:31.389Z,0
2016-02-06T00:33:31.377Z,0
2016-02-06T00:34:31.337Z,0
2016-02-06T00:35:31.326Z,0
2016-02-06T00:36:31.312Z,0
2016-02-06T00:37:31.299Z,0
2016-02-06T00:38:31.255Z,0
2016-02-06T00:39:31.227Z,0
2016-02-06T00:40:31.198Z,0
2016-02-06T00:41:31.201Z,0
2016-02-06T00:42:31.172Z,0
2016-02-06T00:43:31.160Z,0
2016-02-06T00:44:31.115Z,0
2016-02-06T00:45:31.087Z,0
2016-02-06T00:46:31.077Z,0
2016-02-06T00:47:31.065Z,0
2016-02-06T00:48:31.021Z,0
2016-02-06T00:49:31.007Z,0
2016-02-06T00:50:30.979Z,0
2016-02-06T00:51:30.982Z,0
2016-02-06T00:52:30.937Z,0
2016-02-06T00:53:30.910Z,0
2016-02-06T00:54:30.897Z,0
2016-02-06T00:55:30.868Z,0
2016-02-06T00:56:30.840Z,0
2016-02-06T00:57:30.811Z,0
2016-02-06T00:58:30.813Z,0
2016-02-06T00:59:30.816Z,0
2016-02-06T01:00:30.757Z,0
2016-02-06T01:01:30.728Z,0
2016-02-06T01:02:30.731Z,0
2016-02-06T01:03:30.686Z,0
2016-02-06T01:04:30.673Z,0
2016-02-06T01:05:30.665Z,0
2016-02-06T01:06:30.639Z,0
2016-02-06T01:07:30.594Z,0
2016-02-06T01:08:30.566Z,0
2016-02-06T01:09:30.553Z,0
2016-02-06T01:10:30.541Z,0
2016-02-06T01:11:30.497Z,0
2016-02-06T01:12:30.483Z,0
2016-02-06T01:13:30.470Z,0
2016-02-06T01:14:30.459Z,0
2016-02-06T01:15:30.414Z,0
2016-02-06T01:16:30.386Z,0
2016-02-06T01:17:30.393Z,0
2016-02-06T01:18:30.349Z,0
2016-02-06T01:19:30.321Z,0
2016-02-06T01:20:30.307Z,0
2016-02-06T01:21:30.294Z,0
2016-02-06T01:22:30.250Z,0
2016-02-06T01:23:30.221Z,0
2016-02-06T01:24:30.224Z,0
2016-02-06T01:25:30.180Z,0
2016-02-06T01:26:30.151Z,0
2016-02-06T01:27:30.125Z,0
2016-02-06T01:28:30.112Z,0
2016-02-06T01:29:30.098Z,0
2016-02-06T01:30:30.117Z,0
2016-02-06T01:31:30.041Z,0
2016-02-06T01:32:30.028Z,0
2016-02-06T01:33:30.007Z,0
2016-02-06T01:34:30.028Z,0
2016-02-06T01:35:29.951Z,0
2016-02-06T01:36:29.923Z,0
2016-02-06T01:37:29.925Z,0
2016-02-06T01:38:29.928Z,0
2016-02-06T01:39:29.853Z,0
2016-02-06T01:40:29.840Z,0
2016-02-06T01:41:29.842Z,0
2016-02-06T01:42:29.799Z,0
2016-02-06T01:43:29.785Z,0
2016-02-06T01:44:29.789Z,0
2016-02-06T01:45:29.728Z,0
2016-02-06T01:46:29.700Z,0
2016-02-06T01:47:29.687Z,0
2016-02-06T01:48:29.658Z,0
2016-02-06T01:49:29.646Z,0
2016-02-06T01:50:29.633Z,0
2016-02-06T01:51:29.619Z,0
2016-02-06T01:52:29.576Z,0
2016-02-06T01:53:29.546Z,0
2016-02-06T01:54:29.534Z,0
2016-02-06T01:55:29.521Z,0
2016-02-06T01:56:29.462Z,0
2016-02-06T01:57:29.448Z,0
2016-02-06T01:58:29.435Z,0
2016-02-06T01:59:29.406Z,0
2016-02-06T02:00:29.380Z,0
2016-02-06T02:01:29.366Z,0
2016-02-06T02:02:29.354Z,0
2016-02-06T02:03:29.341Z,0
2016-02-06T02:04:29.281Z,0
2016-02-06T02:05:29.269Z,0
2016-02-06T02:06:29.256Z,0
2016-02-06T02:07:29.211Z,0
2016-02-06T02:08:29.214Z,0
2016-02-06T02:09:29.185Z,0
2016-02-06T02:10:29.142Z,0
2016-02-06T02:11:29.128Z,0
2016-02-06T02:12:29.100Z,0
2016-02-06T02:13:29.074Z,0
2016-02-06T02:14:29.077Z,0
2016-02-06T02:15:29.048Z,0
2016-02-06T02:16:29.004Z,0
2016-02-06T02:17:29.007Z,0
2016-02-06T02:18:28.993Z,0
2016-02-06T02:19:28.934Z,0
2016-02-06T02:20:28.905Z,0
2016-02-06T02:21:28.893Z,0
2016-02-06T02:22:28.910Z,0
2016-02-06T02:23:28.835Z,0
2016-02-06T02:24:28.806Z,0
2016-02-06T02:25:28.653Z,0
2016-02-06T02:26:28.770Z,0
2016-02-06T02:27:28.741Z,0
2016-02-06T02:28:28.744Z,0
2016-02-06T02:29:28.730Z,0
2016-02-06T02:30:28.671Z,0
2016-02-06T02:31:28.647Z,0
2016-02-06T02:32:28.636Z,0
2016-02-06T02:33:28.636Z,0
2016-02-06T02:34:28.592Z,0
2016-02-06T02:35:28.548Z,0
2016-02-06T02:36:28.550Z,0
2016-02-06T02:37:28.506Z,0
2016-02-06T02:38:28.477Z,0
2016-02-06T02:39:28.496Z,0
2016-02-06T02:40:28.453Z,0
2016-02-06T02:41:28.410Z,0
2016-02-06T02:42:28.396Z,0
2016-02-06T02:43:28.383Z,0
2016-02-06T02:44:28.354Z,0
2016-02-06T02:45:28.310Z,0
2016-02-06T02:46:28.314Z,0
2016-02-06T02:47:28.302Z,0
2016-02-06T02:48:28.257Z,0
2016-02-06T02:49:28.229Z,0
2016-02-06T02:50:28.231Z,0
2016-02-06T02:51:28.218Z,0
2016-02-06T02:52:28.143Z,0
2016-02-06T02:53:28.130Z,0
2016-02-06T02:54:28.117Z,0
2016-02-06T02:55:28.073Z,0
2016-02-06T02:56:28.043Z,0
2016-02-06T02:57:28.032Z,0
2016-02-06T02:58:28.003Z,0
2016-02-06T02:59:27.835Z,0
2016-02-06T03:00:28.009Z,0
2016-02-06T03:01:27.933Z,0
2016-02-06T03:02:27.921Z,0
2016-02-06T03:03:27.913Z,0
2016-02-06T03:04:27.868Z,0
2016-02-06T03:05:27.840Z,0
2016-02-06T03:06:27.826Z,0
2016-02-06T03:07:27.816Z,0
2016-02-06T03:08:27.756Z,0
2016-02-06T03:09:27.742Z,0
2016-02-06T03:10:27.730Z,0
2016-02-06T03:11:27.717Z,0
2016-02-06T03:12:27.736Z,0
2016-02-06T03:13:27.629Z,0
2016-02-06T03:14:27.618Z,0
2016-02-06T03:15:27.605Z,0
2016-02-06T03:16:27.576Z,0
2016-02-06T03:17:27.564Z,0
2016-02-06T03:18:27.535Z,0
2016-02-06T03:19:27.507Z,0
2016-02-06T03:20:27.480Z,0
2016-02-06T03:21:27.467Z,0
2016-02-06T03:22:27.453Z,0
2016-02-06T03:23:27.410Z,0
2016-02-06T03:24:27.381Z,0
2016-02-06T03:25:27.353Z,0
2016-02-06T03:26:27.324Z,0
2016-02-06T03:27:27.328Z,0
2016-02-06T03:28:27.284Z,0
2016-02-06T03:29:27.271Z,0
2016-02-06T03:30:27.242Z,0
2016-02-06T03:31:27.229Z,0
2016-02-06T03:32:27.186Z,0
2016-02-06T03:33:27.159Z,0
2016-02-06T03:34:27.145Z,0
2016-02-06T03:35:27.118Z,0
2016-02-06T03:36:27.105Z,0
2016-02-06T03:37:27.062Z,0
2016-02-06T03:38:27.048Z,0
2016-02-06T03:39:27.019Z,0
2016-02-06T03:40:26.993Z,0
2016-02-06T03:41:26.981Z,0
2016-02-06T03:42:26.968Z,0
2016-02-06T03:43:26.924Z,0
2016-02-06T03:44:26.895Z,0
2016-02-06T03:45:26.882Z,0
2016-02-06T03:46:26.839Z,0
2016-02-06T03:47:26.841Z,0
2016-02-06T03:48:26.797Z,0
2016-02-06T03:49:26.628Z,0
2016-02-06T03:50:26.755Z,0
2016-02-06T03:51:26.727Z,0
2016-02-06T03:52:26.714Z,0
2016-02-06T03:53:26.672Z,0
2016-02-06T03:54:26.644Z,0
2016-02-06T03:55:26.631Z,0
2016-02-06T03:56:26.602Z,0
2016-02-06T03:57:26.589Z,0
2016-02-06T03:58:26.545Z,0
2016-02-06T03:59:26.547Z,0
2016-02-06T04:00:26.504Z,0
2016-02-06T04:01:26.481Z,0
2016-02-06T04:02:26.452Z,0
2016-02-06T04:03:26.424Z,0
2016-02-06T04:04:26.427Z,0
2016-02-06T04:05:26.382Z,0
2016-02-06T04:06:26.356Z,0
2016-02-06T04:07:26.344Z,0
2016-02-06T04:08:26.316Z,0
2016-02-06T04:09:26.302Z,0
2016-02-06T04:10:26.258Z,0
2016-02-06T04:11:26.245Z,0
2016-02-06T04:12:26.217Z,0
2016-02-06T04:13:26.204Z,0
2016-02-06T04:14:26.162Z,0
2016-02-06T04:15:26.132Z,0
2016-02-06T04:16:26.120Z,0
2016-02-06T04:17:26.092Z,0
2016-02-06T04:18:26.079Z,0
2016-02-06T04:19:26.037Z,0
2016-02-06T04:20:26.024Z,0
2016-02-06T04:21:25.981Z,0
2016-02-06T04:22:25.953Z,0
2016-02-06T04:23:25.955Z,0
2016-02-06T04:24:25.912Z,0
2016-02-06T04:25:25.899Z,0
2016-02-06T04:26:25.886Z,0
2016-02-06T04:27:25.841Z,0
2016-02-06T04:28:25.813Z,0
2016-02-06T04:29:25.662Z,0
2016-02-06T04:30:25.774Z,0
2016-02-06T04:31:25.745Z,0
2016-02-06T04:32:25.716Z,0
2016-02-06T04:33:25.704Z,0
2016-02-06T04:34:25.691Z,0
2016-02-06T04:35:25.646Z,0
2016-02-06T04:36:25.649Z,0
2016-02-06T04:37:25.589Z,0
2016-02-06T04:38:25.577Z,0
2016-02-06T04:39:25.549Z,0
2016-02-06T04:40:25.521Z,0
2016-02-06T04:41:25.507Z,0
2016-02-06T04:42:25.479Z,0
2016-02-06T04:43:25.466Z,0
2016-02-06T04:44:25.438Z,0
2016-02-06T04:45:25.424Z,0
2016-02-06T04:46:25.380Z,0
2016-02-06T04:47:25.352Z,0
2016-02-06T04:48:25.340Z,0
2016-02-06T04:49:25.296Z,0
2016-02-06T04:50:25.299Z,0
2016-02-06T04:51:25.254Z,0
2016-02-06T04:52:25.243Z,0
2016-02-06T04:53:25.215Z,0
2016-02-06T04:54:25.186Z,0
2016-02-06T04:55:25.176Z,0
2016-02-06T04:56:25.148Z,0
2016-02-06T04:57:25.103Z,0
2016-02-06T04:58:24.960Z,0
2016-02-06T04:59:25.057Z,0
2016-02-06T05:00:25.044Z,0
2016-02-06T05:01:25.015Z,0
2016-02-06T05:02:25.003Z,0
2016-02-06T05:03:24.958Z,0
2016-02-06T05:04:24.946Z,0
2016-02-06T05:05:24.917Z,0
2016-02-06T05:06:24.889Z,0
2016-02-06T05:07:24.703Z,0
2016-02-06T05:08:24.849Z,0
2016-02-06T05:09:24.819Z,0
2016-02-06T05:10:24.792Z,0
2016-02-06T05:11:24.779Z,0
2016-02-06T05:12:24.735Z,0
2016-02-06T05:13:24.738Z,0
2016-02-06T05:14:24.694Z,0
2016-02-06T05:15:24.665Z,0
2016-02-06T05:16:24.637Z,0
2016-02-06T05:17:24.624Z,0
2016-02-06T05:18:24.611Z,0
2016-02-06T05:19:24.566Z,0
2016-02-06T05:20:24.570Z,0
2016-02-06T05:21:24.511Z,0
2016-02-06T05:22:24.497Z,0
2016-02-06T05:23:24.484Z,0
2016-02-06T05:24:24.440Z,0
2016-02-06T05:25:24.443Z,0
2016-02-06T05:26:24.387Z,0
2016-02-06T05:27:24.373Z,0
2016-02-06T05:28:24.345Z,0
2016-02-06T05:29:24.343Z,0
2016-02-06T05:30:24.300Z,0
2016-02-06T05:31:24.271Z,0
2016-02-06T05:32:24.242Z,0
2016-02-06T05:33:24.215Z,0
2016-02-06T05:34:24.218Z,0
2016-02-06T05:35:24.175Z,0
2016-02-06T05:36:24.162Z,0
2016-02-06T05:37:24.133Z,0
2016-02-06T05:38:24.103Z,0
2016-02-06T05:39:24.091Z,0
2016-02-06T05:40:24.048Z,0
2016-02-06T05:41:24.037Z,0
2016-02-06T05:42:24.008Z,0
2016-02-06T05:43:23.839Z,0
2016-02-06T05:44:23.951Z,0
2016-02-06T05:45:23.923Z,0
2016-02-06T05:46:23.895Z,0
2016-02-06T05:47:23.726Z,0
2016-02-06T05:48:23.854Z,0
2016-02-06T05:49:23.826Z,0
2016-02-06T05:50:23.829Z,0
2016-02-06T05:51:23.769Z,0
2016-02-06T05:52:23.756Z,0
2016-02-06T05:53:23.759Z,0
2016-02-06T05:54:23.701Z,0
2016-02-06T05:55:23.688Z,0
2016-02-06T05:56:23.659Z,0
2016-02-06T05:57:23.631Z,0
2016-02-06T05:58:23.598Z,0
2016-02-06T05:59:23.603Z,0
2016-02-06T06:00:23.559Z,0
2016-02-06T06:01:23.546Z,0
2016-02-06T06:02:23.503Z,0
2016-02-06T06:03:23.475Z,0
2016-02-06T06:04:23.477Z,0
2016-02-06T06:05:23.433Z,0
2016-02-06T06:06:23.421Z,0
2016-02-06T06:07:23.377Z,0
2016-02-06T06:08:23.379Z,0
2016-02-06T06:09:23.335Z,0
2016-02-06T06:10:23.337Z,0
2016-02-06T06:11:23.293Z,0
2016-02-06T06:12:23.265Z,0
2016-02-06T06:13:23.237Z,0
2016-02-06T06:14:23.239Z,0
2016-02-06T06:15:23.195Z,0
2016-02-06T06:16:23.165Z,0
2016-02-06T06:17:23.154Z,0
2016-02-06T06:18:23.109Z,0
2016-02-06T06:19:23.112Z,0
2016-02-06T06:20:23.070Z,0
2016-02-06T06:21:23.043Z,0
2016-02-06T06:22:23.030Z,0
2016-02-06T06:23:22.986Z,0
2016-02-06T06:24:22.973Z,0
2016-02-06T06:25:22.788Z,0
2016-02-06T06:26:22.916Z,0
2016-02-06T06:27:22.892Z,0
2016-02-06T06:28:22.878Z,0
2016-02-06T06:29:22.850Z,0
2016-02-06T06:30:22.824Z,0
2016-02-06T06:31:22.796Z,0
2016-02-06T06:32:22.768Z,0
2016-02-06T06:33:22.740Z,0
2016-02-06T06:34:22.695Z,0
2016-02-06T06:35:22.682Z,0
2016-02-06T06:36:22.684Z,0
2016-02-06T06:37:22.640Z,0
2016-02-06T06:38:22.628Z,0
2016-02-06T06:39:22.599Z,0
2016-02-06T06:40:22.587Z,0
2016-02-06T06:41:22.543Z,0
2016-02-06T06:42:22.530Z,0
2016-02-06T06:43:22.502Z,0
2016-02-06T06:44:22.473Z,0
2016-02-06T06:45:22.445Z,0
2016-02-06T06:46:22.415Z,0
2016-02-06T06:47:22.418Z,0
2016-02-06T06:48:22.363Z,0
2016-02-06T06:49:22.349Z,0
2016-02-06T06:50:22.321Z,0
2016-02-06T06:51:22.294Z,0
2016-02-06T06:52:22.264Z,5
2016-02-06T06:53:22.237Z,5
2016-02-06T06:54:22.239Z,5
2016-02-06T06:55:22.195Z,5
2016-02-06T06:56:22.184Z,5
2016-02-06T06:57:23.093Z,5
2016-02-06T06:58:22.142Z,5
2016-02-06T06:59:22.113Z,10
2016-02-06T07:00:22.084Z,10
2016-02-06T07:01:22.051Z,10
2016-02-06T07:02:22.554Z,10
2016-02-06T07:03:22.308Z,10
2016-02-06T07:04:21.983Z,10
2016-02-06T07:05:21.939Z,15
2016-02-06T07:06:22.347Z,15
2016-02-06T07:07:21.929Z,15
2016-02-06T07:08:21.885Z,15
2016-02-06T07:09:21.873Z,20
2016-02-06T07:10:21.828Z,20
2016-02-06T07:11:21.800Z,20
2016-02-06T07:12:21.787Z,20
2016-02-06T07:13:21.603Z,25
2016-02-06T07:14:21.731Z,25
2016-02-06T07:15:21.717Z,25
2016-02-06T07:16:21.689Z,30
2016-02-06T07:17:21.817Z,30
2016-02-06T07:18:21.648Z,30
2016-02-06T07:19:21.620Z,35
2016-02-06T07:20:21.575Z,35
2016-02-06T07:21:21.563Z,35
2016-02-06T07:22:21.534Z,40
2016-02-06T07:23:21.538Z,40
2016-02-06T07:24:21.727Z,45
2016-02-06T07:25:21.480Z,45
2016-02-06T07:26:21.436Z,45
2016-02-06T07:27:21.410Z,50
2016-02-06T07:28:21.382Z,50
2016-02-06T07:29:21.371Z,55
2016-02-06T07:30:21.326Z,55
2016-02-06T07:31:21.313Z,55
2016-02-06T07:32:21.300Z,55
2016-02-06T07:33:21.260Z,55
2016-02-06T07:34:21.263Z,60
2016-02-06T07:35:21.219Z,60
2016-02-06T07:36:21.190Z,65
2016-02-06T07:37:21.162Z,65
2016-02-06T07:38:21.149Z,65
2016-02-06T07:39:21.760Z,70
2016-02-06T07:40:21.092Z,70
2016-02-06T07:41:21.063Z,70
2016-02-06T07:42:21.050Z,75
2016-02-06T07:43:21.021Z,75
2016-02-06T07:44:20.993Z,80
2016-02-06T07:45:20.812Z,80
2016-02-06T07:46:20.971Z,85
2016-02-06T07:47:20.927Z,85
2016-02-06T07:48:21.804Z,90
2016-02-06T07:49:21.713Z,90
2016-02-06T07:50:21.375Z,95
2016-02-06T07:51:20.818Z,100
2016-02-06T07:52:20.772Z,100
2016-02-06T07:53:20.758Z,105
2016-02-06T07:54:20.698Z,110
2016-02-06T07:55:20.654Z,115
2016-02-06T07:56:20.617Z,120
2016-02-06T07:57:20.583Z,125
2016-02-06T07:58:20.563Z,135
2016-02-06T07:59:20.529Z,135
2016-02-06T08:00:20.497Z,135
2016-02-06T08:01:20.482Z,135
2016-02-06T08:02:20.451Z,135
2016-02-06T08:03:20.423Z,135
2016-02-06T08:04:20.408Z,135
2016-02-06T08:05:20.364Z,135
2016-02-06T08:06:20.334Z,135
2016-02-06T08:07:20.320Z,135
2016-02-06T08:08:20.293Z,140
2016-02-06T08:09:20.263Z,150
2016-02-06T08:10:20.234Z,160
2016-02-06T08:11:20.220Z,175
2016-02-06T08:12:20.191Z,190
2016-02-06T08:13:20.179Z,195
2016-02-06T08:14:20.149Z,205
2016-02-06T08:15:20.121Z,215
2016-02-06T08:16:20.107Z,215
2016-02-06T08:17:20.064Z,220
2016-02-06T08:18:19.894Z,220
2016-02-06T08:19:20.022Z,215
2016-02-06T08:20:21.962Z,205
2016-02-06T08:21:19.996Z,195
2016-02-06T08:22:20.019Z,190
2016-02-06T08:23:19.957Z,185
2016-02-06T08:24:19.755Z,180
2016-02-06T08:25:19.900Z,185
2016-02-06T08:26:19.871Z,185
2016-02-06T08:27:19.858Z,190
2016-02-06T08:28:19.813Z,190
2016-02-06T08:29:19.785Z,195
2016-02-06T08:30:19.757Z,205
2016-02-06T08:31:19.760Z,205
2016-02-06T08:32:19.721Z,215
2016-02-06T08:33:19.707Z,220
2016-02-06T08:34:19.664Z,220
2016-02-06T08:35:19.652Z,220
2016-02-06T08:36:19.638Z,225
2016-02-06T08:37:19.610Z,230
2016-02-06T08:38:19.581Z,225
2016-02-06T08:39:19.552Z,230
2016-02-06T08:40:19.508Z,230
2016-02-06T08:41:19.520Z,230
2016-02-06T08:42:19.475Z,230
2016-02-06T08:43:19.462Z,235
2016-02-06T08:44:19.433Z,235
2016-02-06T08:45:19.422Z,235
2016-02-06T08:46:19.393Z,240
2016-02-06T08:47:19.352Z,240
2016-02-06T08:48:19.322Z,240
2016-02-06T08:49:19.310Z,245
2016-02-06T08:50:19.297Z,250
2016-02-06T08:51:19.268Z,245
2016-02-06T08:52:19.242Z,245
2016-02-06T08:53:19.213Z,250
2016-02-06T08:54:19.187Z,250
2016-02-06T08:55:19.174Z,250
2016-02-06T08:56:19.146Z,250
2016-02-06T08:57:19.133Z,255
2016-02-06T08:58:19.104Z,255
2016-02-06T08:59:19.076Z,255
2016-02-06T09:00:19.062Z,255
2016-02-06T09:01:19.112Z,260
2016-02-06T09:02:19.011Z,260
2016-02-06T09:03:18.982Z,260
2016-02-06T09:04:18.963Z,260
2016-02-06T09:05:18.935Z,265
2016-02-06T09:06:18.922Z,265
2016-02-06T09:07:18.894Z,265
2016-02-06T09:08:18.881Z,265
2016-02-06T09:09:18.837Z,265
2016-02-06T09:10:18.826Z,270
2016-02-06T09:11:18.796Z,270
2016-02-06T09:12:18.768Z,270
2016-02-06T09:13:18.755Z,275
2016-02-06T09:14:18.711Z,275
2016-02-06T09:15:18.698Z,275
2016-02-06T09:16:18.671Z,275
2016-02-06T09:17:18.658Z,280
2016-02-06T09:18:18.629Z,280
2016-02-06T09:19:18.600Z,280
2016-02-06T09:20:18.594Z,280
2016-02-06T09:21:18.549Z,285
2016-02-06T09:22:18.535Z,285
2016-02-06T09:23:18.508Z,285
2016-02-06T09:24:18.480Z,290
2016-02-06T09:25:18.467Z,290
2016-02-06T09:26:18.439Z,290
2016-02-06T09:27:18.425Z,290
2016-02-06T09:28:18.414Z,295
2016-02-06T09:29:18.401Z,295
2016-02-06T09:30:18.357Z,295
2016-02-06T09:31:18.328Z,295
2016-02-06T09:32:18.315Z,295
2016-02-06T09:33:18.271Z,300
2016-02-06T09:34:18.274Z,300
2016-02-06T09:35:18.231Z,305
2016-02-06T09:36:18.202Z,305
2016-02-06T09:37:18.190Z,305
2016-02-06T09:38:18.161Z,305
2016-02-06T09:39:18.148Z,305
2016-02-06T09:40:18.120Z,310
2016-02-06T09:41:18.091Z,310
2016-02-06T09:42:18.079Z,310
2016-02-06T09:43:18.036Z,310
2016-02-06T09:44:18.023Z,315
2016-02-06T09:45:17.994Z,315
2016-02-06T09:46:17.997Z,315
2016-02-06T09:47:17.953Z,315
2016-02-06T09:48:17.956Z,325
2016-02-06T09:49:17.911Z,325
2016-02-06T09:50:17.883Z,325
2016-02-06T09:51:17.870Z,325
2016-02-06T09:52:17.843Z,330
2016-02-06T09:53:17.829Z,330
2016-02-06T09:54:17.786Z,335
2016-02-06T09:55:17.788Z,330
2016-02-06T09:56:17.744Z,335
2016-02-06T09:57:17.747Z,345
2016-02-06T09:58:17.702Z,345
2016-02-06T09:59:17.752Z,360
2016-02-06T10:00:17.661Z,355
2016-02-06T10:01:17.757Z,350
2016-02-06T10:02:17.611Z,355
2016-02-06T10:03:17.598Z,355
2016-02-06T10:04:17.569Z,365
2016-02-06T10:05:17.541Z,360
2016-02-06T10:06:17.559Z,365
2016-02-06T10:07:17.499Z,370
2016-02-06T10:08:17.487Z,390
2016-02-06T10:09:17.458Z,415
2016-02-06T10:10:17.477Z,430
2016-02-06T10:11:17.401Z,450
2016-02-06T10:12:17.388Z,450
2016-02-06T10:13:17.469Z,445
2016-02-06T10:14:17.348Z,440
2016-02-06T10:15:17.335Z,430
2016-02-06T10:16:17.306Z,420
2016-02-06T10:17:17.297Z,405
2016-02-06T10:18:17.253Z,395
2016-02-06T10:19:17.239Z,395
2016-02-06T10:20:17.210Z,390
2016-02-06T10:21:17.213Z,385
2016-02-06T10:22:17.174Z,400
2016-02-06T10:23:17.176Z,415
2016-02-06T10:24:17.117Z,405
2016-02-06T10:25:17.103Z,430
2016-02-06T10:26:17.074Z,395
2016-02-06T10:27:17.062Z,455
2016-02-06T10:28:17.034Z,400
2016-02-06T10:29:17.036Z,510
2016-02-06T10:30:16.993Z,440
2016-02-06T10:31:16.981Z,465
2016-02-06T10:32:16.952Z,445
2016-02-06T10:33:16.924Z,510
2016-02-06T10:34:16.910Z,540
2016-02-06T10:35:16.883Z,500
2016-02-06T10:36:16.870Z,440
2016-02-06T10:37:16.842Z,540
2016-02-06T10:38:16.828Z,515
2016-02-06T10:39:16.800Z,560
2016-02-06T10:40:16.786Z,570
2016-02-06T10:41:16.758Z,495
2016-02-06T10:42:16.730Z,605
2016-02-06T10:43:16.734Z,555
2016-02-06T10:44:16.720Z,545
2016-02-06T10:45:16.673Z,570
2016-02-06T10:46:16.676Z,585
2016-02-06T10:47:16.632Z,600
2016-02-06T10:48:16.607Z,570
2016-02-06T10:49:16.580Z,515
2016-02-06T10:50:16.566Z,440
2016-02-06T10:51:16.554Z,425
2016-02-06T10:52:16.525Z,470
2016-02-06T10:53:16.527Z,545
2016-02-06T10:54:16.485Z,550
2016-02-06T10:55:16.471Z,590
2016-02-06T10:56:16.444Z,630
2016-02-06T10:57:16.446Z,615
2016-02-06T10:58:16.417Z,625
2016-02-06T10:59:16.393Z,555
2016-02-06T11:00:16.365Z,575
2016-02-06T11:01:16.367Z,625
2016-02-06T11:02:16.323Z,590
2016-02-06T11:03:16.296Z,500
2016-02-06T11:04:16.283Z,485
2016-02-06T11:05:16.113Z,540
2016-02-06T11:06:16.241Z,605
2016-02-06T11:07:16.228Z,640
2016-02-06T11:08:16.199Z,650
2016-02-06T11:09:16.190Z,715
2016-02-06T11:10:16.177Z,705
2016-02-06T11:11:16.149Z,690
2016-02-06T11:12:16.136Z,675
2016-02-06T11:13:16.107Z,555
2016-02-06T11:14:16.094Z,475
2016-02-06T11:15:16.050Z,580
2016-02-06T11:16:16.053Z,610
2016-02-06T11:17:16.024Z,555
2016-02-06T11:18:15.996Z,510
2016-02-06T11:19:15.982Z,455
2016-02-06T11:20:15.971Z,425
2016-02-06T11:21:15.941Z,455
2016-02-06T11:22:15.929Z,530
2016-02-06T11:23:15.899Z,625
2016-02-06T11:24:15.888Z,680
2016-02-06T11:25:15.860Z,665
2016-02-06T11:26:15.847Z,640
2016-02-06T11:27:15.833Z,570
2016-02-06T11:28:15.817Z,475
2016-02-06T11:29:15.790Z,475
2016-02-06T11:30:15.763Z,545
2016-02-06T11:31:15.765Z,670
2016-02-06T11:32:15.721Z,740
2016-02-06T11:33:15.708Z,780
2016-02-06T11:34:15.696Z,660
2016-02-06T11:35:15.668Z,685
2016-02-06T11:36:15.654Z,695
2016-02-06T11:37:15.630Z,720
2016-02-06T11:38:15.632Z,655
2016-02-06T11:39:15.605Z,650
2016-02-06T11:40:15.592Z,625
2016-02-06T11:41:15.547Z,700
2016-02-06T11:42:15.566Z,745
2016-02-06T11:43:15.521Z,700
2016-02-06T11:44:15.508Z,750
2016-02-06T11:45:15.480Z,715
2016-02-06T11:46:15.467Z,650
2016-02-06T11:47:15.438Z,700
2016-02-06T11:48:15.440Z,690
2016-02-06T11:49:15.397Z,595
2016-02-06T11:50:15.400Z,565
2016-02-06T11:51:15.372Z,580
2016-02-06T11:52:15.375Z,675
2016-02-06T11:53:15.174Z,615
2016-02-06T11:54:15.333Z,620
2016-02-06T11:55:15.305Z,530
2016-02-06T11:56:15.135Z,445
2016-02-06T11:57:15.263Z,460
2016-02-06T11:58:15.235Z,415
2016-02-06T11:59:15.222Z,400
2016-02-06T12:00:15.226Z,395
2016-02-06T12:01:15.182Z,370
2016-02-06T12:02:15.184Z,305
2016-02-06T12:03:15.141Z,320
2016-02-06T12:04:15.129Z,355
2016-02-06T12:05:15.100Z,370
2016-02-06T12:06:14.368Z,430
2016-02-06T12:07:15.074Z,500
2016-02-06T12:08:15.046Z,535
2016-02-06T12:09:15.033Z,565
2016-02-06T12:10:15.005Z,550
2016-02-06T12:11:14.995Z,595
2016-02-06T12:12:14.982Z,690
2016-02-06T12:13:14.953Z,655
2016-02-06T12:14:14.955Z,600
2016-02-06T12:15:14.912Z,605
2016-02-06T12:16:14.904Z,570
2016-02-06T12:17:14.876Z,585
2016-02-06T12:18:14.847Z,550
2016-02-06T12:19:14.835Z,535
2016-02-06T12:20:14.822Z,500
2016-02-06T12:21:14.809Z,530
2016-02-06T12:22:14.780Z,565
2016-02-06T12:23:14.768Z,575
2016-02-06T12:24:14.740Z,590
2016-02-06T12:25:14.744Z,585
2016-02-06T12:26:14.715Z,595
2016-02-06T12:27:14.702Z,590
2016-02-06T12:28:14.597Z,560
2016-02-06T12:29:14.647Z,595
2016-02-06T12:30:14.634Z,560
2016-02-06T12:31:14.606Z,565
2016-02-06T12:32:14.593Z,565
2016-02-06T12:33:14.581Z,615
2016-02-06T12:34:14.551Z,690
2016-02-06T12:35:14.539Z,630
2016-02-06T12:36:14.510Z,635
2016-02-06T12:37:14.499Z,625
2016-02-06T12:38:14.485Z,550
2016-02-06T12:39:14.473Z,540
2016-02-06T12:40:14.443Z,545
2016-02-06T12:41:14.432Z,525
2016-02-06T12:42:14.418Z,525
2016-02-06T12:43:14.405Z,540
2016-02-06T12:44:14.376Z,530
2016-02-06T12:45:14.364Z,520
2016-02-06T12:46:14.335Z,510
2016-02-06T12:47:14.322Z,510
2016-02-06T12:48:14.293Z,530
2016-02-06T12:49:14.265Z,530
2016-02-06T12:50:14.268Z,465
2016-02-06T12:51:14.241Z,460
2016-02-06T12:52:14.229Z,490
2016-02-06T12:53:14.200Z,485
2016-02-06T12:54:14.187Z,490
2016-02-06T12:55:14.159Z,500
2016-02-06T12:56:14.178Z,530
2016-02-06T12:57:14.137Z,535
2016-02-06T12:58:14.108Z,550
2016-02-06T12:59:14.094Z,565
2016-02-06T13:00:14.084Z,580
2016-02-06T13:01:14.055Z,595
2016-02-06T13:02:14.058Z,615
2016-02-06T13:03:14.014Z,605
2016-02-06T13:04:14.001Z,610
2016-02-06T13:05:13.989Z,610
2016-02-06T13:06:13.992Z,615
2016-02-06T13:07:13.931Z,615
2016-02-06T13:08:13.919Z,615
2016-02-06T13:09:13.906Z,625
2016-02-06T13:10:13.912Z,610
2016-02-06T13:11:13.867Z,605
2016-02-06T13:12:13.839Z,605
2016-02-06T13:13:13.841Z,605
2016-02-06T13:14:13.813Z,610
2016-02-06T13:15:13.784Z,620
2016-02-06T13:16:13.772Z,615
2016-02-06T13:17:13.758Z,610
2016-02-06T13:18:13.735Z,615
2016-02-06T13:19:13.721Z,655
2016-02-06T13:20:13.709Z,650
2016-02-06T13:21:13.727Z,660
2016-02-06T13:22:13.668Z,670
2016-02-06T13:23:13.639Z,665
2016-02-06T13:24:13.642Z,700
2016-02-06T13:25:13.644Z,680
2016-02-06T13:26:13.588Z,665
2016-02-06T13:27:13.559Z,670
2016-02-06T13:28:13.547Z,665
2016-02-06T13:29:13.533Z,665
2016-02-06T13:30:13.521Z,650
2016-02-06T13:31:13.527Z,650
2016-02-06T13:32:13.498Z,640
2016-02-06T13:33:13.469Z,620
2016-02-06T13:34:13.456Z,620
2016-02-06T13:35:13.444Z,635
2016-02-06T13:36:13.403Z,620
2016-02-06T13:37:13.405Z,595
2016-02-06T13:38:13.377Z,600
2016-02-06T13:39:13.384Z,570
2016-02-06T13:40:13.339Z,585
2016-02-06T13:41:13.326Z,565
2016-02-06T13:42:13.313Z,540
2016-02-06T13:43:13.316Z,525
2016-02-06T13:44:13.273Z,500
2016-02-06T13:45:13.259Z,480
2016-02-06T13:46:13.246Z,470
2016-02-06T13:47:13.249Z,465
2016-02-06T13:48:13.204Z,445
2016-02-06T13:49:13.176Z,430
2016-02-06T13:50:13.179Z,420
2016-02-06T13:51:13.182Z,415
2016-02-06T13:52:13.437Z,410
2016-02-06T13:53:13.112Z,380
2016-02-06T13:54:13.098Z,390
2016-02-06T13:55:13.102Z,375
2016-02-06T13:56:13.058Z,370
2016-02-06T13:57:13.045Z,355
2016-02-06T13:58:13.016Z,350
2016-02-06T13:59:13.003Z,355
2016-02-06T14:00:12.993Z,355
2016-02-06T14:01:12.981Z,345
2016-02-06T14:02:12.951Z,335
2016-02-06T14:03:12.954Z,330
2016-02-06T14:04:12.910Z,330
2016-02-06T14:05:12.914Z,325
2016-02-06T14:06:12.870Z,320
2016-02-06T14:07:12.857Z,315
2016-02-06T14:08:12.828Z,320
2016-02-06T14:09:12.831Z,310
2016-02-06T14:10:12.803Z,300
2016-02-06T14:11:12.773Z,305
2016-02-06T14:12:12.776Z,305
2016-02-06T14:13:12.764Z,315
2016-02-06T14:14:12.719Z,310
2016-02-06T14:15:12.722Z,310
2016-02-06T14:16:12.694Z,315